Time;durP1;ratioP1;P1;durP2;ratioP2;P2;SDS_P1;SDS_P2;PMS_P1;PMS_P2;Temp;Humidity;BMP_temperature;BMP_pressure;BME280_temperature;BME280_humidity;BME280_pressure;Samples;Min_cycle;Max_cycle;Signal;HPM_P1;HPM_P2
2022/08/29 00:01:20;;;;;;;34.10;20.15;;;;;;;13.81;81.08;102089.81;5071328;28;20066;-53
2022/08/29 00:03:46;;;;;;;31.98;19.15;;;;;;;13.77;81.78;102087.91;5071472;28;20024;-54
2022/08/29 00:06:12;;;;;;;33.05;20.05;;;;;;;13.73;82.05;102088.53;5071555;28;20021;-55
2022/08/29 00:08:38;;;;;;;32.63;19.58;;;;;;;13.72;81.85;102084.09;5071770;28;20163;-54
2022/08/29 00:11:08;;;;;;;33.33;20.98;;;;;;;13.69;81.84;102083.88;5071899;28;20037;-54
2022/08/29 00:13:34;;;;;;;33.08;20.40;;;;;;;13.64;81.96;102079.19;5071879;28;20032;-53
2022/08/29 00:15:59;;;;;;;32.05;20.73;;;;;;;13.63;82.06;102077.53;5071191;28;20108;-52
2022/08/29 00:18:25;;;;;;;33.88;21.17;;;;;;;13.59;82.69;102084.81;5071621;28;20119;-54
2022/08/29 00:20:51;;;;;;;35.40;21.15;;;;;;;13.57;82.25;102076.78;5071850;28;20021;-54
2022/08/29 00:23:17;;;;;;;36.78;20.80;;;;;;;13.57;82.65;102074.00;5072017;28;20032;-53
2022/08/29 00:25:42;;;;;;;32.15;20.75;;;;;;;13.53;82.47;102075.69;5071889;28;20024;-52
2022/08/29 00:28:08;;;;;;;32.78;20.67;;;;;;;13.51;82.75;102072.38;5071028;28;20345;-56
2022/08/29 00:30:34;;;;;;;33.72;20.52;;;;;;;13.48;83.18;102073.00;5071157;28;20035;-54
2022/08/29 00:32:59;;;;;;;32.17;20.58;;;;;;;13.47;82.60;102074.13;5072079;28;20446;-54
2022/08/29 00:35:29;;;;;;;32.45;20.00;;;;;;;13.47;82.62;102070.50;5071732;28;20060;-54
2022/08/29 00:37:54;;;;;;;32.58;20.38;;;;;;;13.50;82.05;102079.09;5071751;28;20037;-54
2022/08/29 00:40:33;;;;;;;31.00;18.90;;;;;;;13.48;82.46;102077.69;5071835;28;20035;-53
2022/08/29 00:42:59;;;;;;;29.95;19.70;;;;;;;13.49;82.21;102079.38;5071617;28;20445;-54
2022/08/29 00:45:25;;;;;;;32.08;19.92;;;;;;;13.49;82.24;102087.69;5071386;28;20063;-53
2022/08/29 00:47:56;;;;;;;30.70;18.92;;;;;;;13.47;82.07;102084.38;5074243;28;20028;-53
2022/08/29 00:50:46;;;;;;;29.00;18.20;;;;;;;13.41;82.62;102090.00;5075668;28;20461;-53
2022/08/29 00:53:15;;;;;;;30.92;20.73;;;;;;;13.39;83.14;102097.81;5064481;28;20148;-53
2022/08/29 00:55:43;;;;;;;33.47;21.15;;;;;;;13.34;83.07;102099.78;5057425;28;20060;-53
2022/08/29 00:58:23;;;;;;;35.08;23.50;;;;;;;13.31;83.25;102092.06;5075461;28;20031;-54
2022/08/29 01:00:48;;;;;;;37.38;24.48;;;;;;;13.24;83.73;102084.88;5075597;28;20067;-54
2022/08/29 01:03:14;;;;;;;52.35;34.00;;;;;;;13.18;84.30;102085.22;5075601;28;20073;-54
2022/08/29 01:05:41;;;;;;;46.58;33.25;;;;;;;13.13;84.67;102086.09;5075444;28;20108;-54
2022/08/29 01:08:07;;;;;;;50.33;34.00;;;;;;;13.07;85.04;102090.06;5075333;28;20097;-51
2022/08/29 01:13:18;;;;;;;54.55;37.67;;;;;;;12.98;85.09;102098.22;5074639;28;20052;-54
2022/08/29 01:15:45;;;;;;;52.60;36.83;;;;;;;13.00;85.28;102095.13;5074584;28;20392;-53
2022/08/29 01:18:14;;;;;;;49.30;35.90;;;;;;;12.95;85.46;102096.81;5067484;23;20167;-59
2022/08/29 01:20:54;;;;;;;47.50;33.10;;;;;;;12.87;86.14;102093.88;5034709;28;20480;-59
2022/08/29 01:23:43;;;;;;;45.10;32.17;;;;;;;12.82;86.06;102093.91;5034482;28;20032;-59
2022/08/29 01:26:10;;;;;;;43.60;30.65;;;;;;;12.75;86.41;102097.03;5034698;28;20108;-58
2022/08/29 01:28:40;;;;;;;41.88;29.95;;;;;;;12.73;86.71;102100.06;5034554;28;20053;-58
2022/08/29 01:31:11;;;;;;;34.42;24.40;;;;;;;12.59;87.18;102080.47;5034603;28;20029;-59
2022/08/29 01:33:51;;;;;;;36.65;24.42;;;;;;;12.64;86.96;102090.72;5034334;28;20092;-59
2022/08/29 01:36:23;;;;;;;33.28;20.85;;;;;;;12.66;87.44;102094.03;5034976;28;20032;-59
2022/08/29 01:38:49;;;;;;;29.20;19.83;;;;;;;12.64;87.66;102097.09;5034438;28;20358;-58
2022/08/29 01:41:16;;;;;;;30.98;19.20;;;;;;;12.63;87.46;102100.16;5034351;28;20033;-58
2022/08/29 01:43:48;;;;;;;27.27;17.92;;;;;;;12.55;87.95;102089.66;5034300;28;20061;-58
2022/08/29 01:46:17;;;;;;;33.00;21.33;;;;;;;12.53;87.93;102087.19;5034298;28;20027;-58
2022/08/29 01:48:44;;;;;;;32.65;20.10;;;;;;;12.51;88.15;102088.59;5034221;28;20025;-59
2022/08/29 01:51:10;;;;;;;30.13;18.30;;;;;;;12.42;88.33;102083.66;5034270;28;20438;-58
2022/08/29 01:53:36;;;;;;;28.80;17.33;;;;;;;12.39;88.54;102092.56;5033941;28;20025;-58
2022/08/29 01:56:09;;;;;;;26.40;15.98;;;;;;;12.40;89.60;102088.69;5033643;28;20033;-58
2022/08/29 01:58:35;;;;;;;25.30;14.88;;;;;;;12.40;89.38;102087.84;5032278;28;20040;-58
2022/08/29 02:01:00;;;;;;;23.08;14.85;;;;;;;12.36;89.71;102087.59;5033844;28;20021;-59
2022/08/29 02:03:26;;;;;;;23.33;14.00;;;;;;;12.37;89.66;102093.97;5033676;28;20040;-58
2022/08/29 02:05:51;;;;;;;23.52;13.57;;;;;;;12.38;89.21;102090.91;5033670;28;20124;-58
2022/08/29 02:08:18;;;;;;;21.40;13.32;;;;;;;12.36;89.36;102089.53;5033732;28;20047;-59
2022/08/29 02:10:44;;;;;;;22.77;12.95;;;;;;;12.34;89.50;102092.59;5015578;28;20380;-59
2022/08/29 02:13:10;;;;;;;25.02;12.82;;;;;;;12.35;89.19;102085.91;5033603;28;20033;-59
2022/08/29 02:15:35;;;;;;;22.05;13.13;;;;;;;12.32;89.87;102083.75;5033423;28;20469;-58
2022/08/29 02:18:01;;;;;;;21.17;13.02;;;;;;;12.25;89.92;102083.22;5033322;28;20117;-58
2022/08/29 02:20:26;;;;;;;21.60;13.15;;;;;;;12.24;90.01;102089.88;5033729;28;20361;-58
2022/08/29 02:22:51;;;;;;;22.17;12.70;;;;;;;12.17;90.45;102087.44;5033511;28;20044;-59
2022/08/29 02:28:02;;;;;;;;;;;;;;;12.19;87.93;102089.91;5033170;28;20148;-60
2022/08/29 02:30:27;;;;;;;23.23;13.00;;;;;;;12.13;89.66;102101.06;5032814;28;19917;-59
2022/08/29 02:32:53;;;;;;;25.67;13.52;;;;;;;12.07;90.32;102090.28;5033004;28;20036;-59
2022/08/29 02:35:18;;;;;;;24.88;14.05;;;;;;;12.07;90.84;102093.88;5033134;28;20021;-59
2022/08/29 02:37:43;;;;;;;26.10;15.40;;;;;;;12.08;90.54;102100.25;5032830;28;20029;-58
2022/08/29 02:40:09;;;;;;;27.35;16.52;;;;;;;12.07;90.65;102091.09;5032930;28;20381;-59
2022/08/29 02:42:34;;;;;;;28.45;17.77;;;;;;;12.04;90.93;102097.22;5032296;28;20032;-58
2022/08/29 02:45:00;;;;;;;28.98;16.50;;;;;;;12.07;91.04;102110.50;5033102;28;20040;-60
2022/08/29 02:47:25;;;;;;;27.17;16.10;;;;;;;12.05;91.24;102107.19;5032817;28;20466;-58
2022/08/29 02:49:51;;;;;;;29.25;16.65;;;;;;;12.06;91.07;102111.63;5032527;28;20036;-58
2022/08/29 02:52:16;;;;;;;27.17;15.90;;;;;;;12.05;90.85;102112.72;5032102;28;20014;-57
2022/08/29 02:54:41;;;;;;;25.40;15.63;;;;;;;12.06;90.64;102111.63;5032722;28;20025;-58
2022/08/29 02:57:07;;;;;;;28.08;16.20;;;;;;;12.09;90.39;102113.00;5032578;28;20032;-59
2022/08/29 02:59:32;;;;;;;28.90;17.90;;;;;;;12.06;90.63;102108.03;5032366;28;20369;-58
2022/08/29 03:01:57;;;;;;;30.15;17.80;;;;;;;12.06;89.96;102111.63;5031867;28;20035;-59
2022/08/29 03:04:23;;;;;;;28.42;16.98;;;;;;;12.07;90.04;102112.47;5032376;28;20389;-58
2022/08/29 03:06:48;;;;;;;29.65;16.23;;;;;;;12.07;89.90;102113.28;5032162;28;20029;-58
2022/08/29 03:09:13;;;;;;;29.73;17.85;;;;;;;12.07;90.59;102112.47;5031271;28;20079;-58
2022/08/29 03:11:39;;;;;;;29.42;18.35;;;;;;;12.06;90.90;102113.56;5031769;28;20045;-58
2022/08/29 03:14:04;;;;;;;32.85;19.23;;;;;;;12.04;90.88;102099.16;5032206;28;20029;-59
2022/08/29 03:16:29;;;;;;;30.10;18.70;;;;;;;11.99;90.53;102105.56;5032182;28;20025;-59
2022/08/29 03:18:55;;;;;;;28.02;17.13;;;;;;;11.98;91.28;102101.13;5031703;28;20132;-58
2022/08/29 03:21:24;;;;;;;26.73;15.60;;;;;;;11.97;91.06;102099.44;5032476;28;20105;-59
2022/08/29 03:23:50;;;;;;;26.70;15.43;;;;;;;11.97;91.13;102099.44;5032473;28;20156;-58
2022/08/29 03:26:17;;;;;;;23.13;13.55;;;;;;;11.92;91.26;102097.50;5032208;28;20531;-57
2022/08/29 03:28:42;;;;;;;21.80;12.68;;;;;;;11.94;91.38;102097.25;5031901;28;20041;-57
2022/08/29 03:31:08;;;;;;;20.40;12.63;;;;;;;11.91;91.49;102098.63;5032119;28;20029;-58
2022/08/29 03:33:34;;;;;;;23.13;13.32;;;;;;;11.91;91.46;102095.84;5031897;28;20040;-56
2022/08/29 03:35:59;;;;;;;24.17;13.60;;;;;;;11.88;91.62;102096.44;5031101;28;20112;-57
2022/08/29 03:38:24;;;;;;;25.00;13.35;;;;;;;11.86;91.35;102093.94;5031959;28;20422;-57
2022/08/29 03:40:50;;;;;;;24.60;12.00;;;;;;;11.90;92.11;102096.13;5031939;28;20025;-58
2022/08/29 03:43:15;;;;;;;23.15;12.35;;;;;;;11.86;91.06;102095.88;5032071;28;20064;-58
2022/08/29 03:45:41;;;;;;;22.65;13.07;;;;;;;11.80;91.60;102088.72;5032044;28;20025;-57
2022/08/29 03:48:06;;;;;;;23.50;13.07;;;;;;;11.77;91.67;102094.81;5031939;28;20076;-58
2022/08/29 03:50:32;;;;;;;22.42;12.68;;;;;;;11.74;91.56;102089.81;5031727;28;20127;-58
2022/08/29 03:52:58;;;;;;;24.73;12.93;;;;;;;11.70;91.41;102081.25;5031501;28;20033;-58
2022/08/29 03:55:23;;;;;;;22.73;12.20;;;;;;;11.66;91.67;102083.75;5031883;28;20048;-58
2022/08/29 03:57:49;;;;;;;21.10;12.02;;;;;;;11.66;91.61;102082.94;5031888;28;20026;-59
2022/08/29 04:00:16;;;;;;;24.85;12.30;;;;;;;11.63;92.18;102080.72;5031907;28;20499;-59
2022/08/29 04:02:44;;;;;;;20.83;12.18;;;;;;;11.48;92.45;102053.91;5031759;28;20053;-59
2022/08/29 04:05:10;;;;;;;23.80;12.57;;;;;;;11.53;92.42;102071.34;5031658;28;20045;-60
2022/08/29 04:07:45;;;;;;;22.73;12.68;;;;;;;11.53;92.67;102067.72;5031610;28;20038;-60
2022/08/29 04:10:15;;;;;;;23.48;12.02;;;;;;;11.47;92.66;102066.09;5031643;28;20030;-59
2022/08/29 04:12:41;;;;;;;22.00;12.73;;;;;;;11.49;93.06;102074.97;5031716;28;20162;-59
2022/08/29 04:15:07;;;;;;;21.65;13.02;;;;;;;11.50;92.72;102079.41;5030607;28;20508;-58
2022/08/29 04:17:33;;;;;;;21.98;13.05;;;;;;;11.46;93.00;102068.06;5030591;28;20049;-59
2022/08/29 04:19:58;;;;;;;23.02;13.00;;;;;;;11.43;92.69;102067.78;5030185;28;20017;-59
2022/08/29 04:22:23;;;;;;;23.50;13.45;;;;;;;11.44;93.05;102070.28;5014115;28;20033;-59
2022/08/29 04:24:49;;;;;;;21.38;13.35;;;;;;;11.42;92.78;102071.66;5034391;28;20022;-58
2022/08/29 04:27:14;;;;;;;22.70;13.00;;;;;;;11.42;92.92;102074.44;5035118;28;20100;-59
2022/08/29 04:29:39;;;;;;;22.40;12.90;;;;;;;11.38;92.86;102080.53;5034877;28;20072;-59
2022/08/29 04:32:05;;;;;;;20.40;12.35;;;;;;;11.36;93.33;102074.44;5035043;28;20033;-59
2022/08/29 04:34:30;;;;;;;20.90;12.93;;;;;;;11.35;93.42;102081.09;5035397;28;20030;-58
2022/08/29 04:36:58;;;;;;;23.55;13.30;;;;;;;11.28;94.09;102071.44;5035035;28;20117;-60
2022/08/29 04:39:23;;;;;;;25.35;13.77;;;;;;;11.31;94.22;102073.63;5034879;28;20025;-58
2022/08/29 04:41:49;;;;;;;24.27;14.85;;;;;;;11.32;93.74;102076.13;5035058;28;20089;-59
2022/08/29 04:44:14;;;;;;;23.77;15.35;;;;;;;11.28;94.06;102080.56;5034522;28;20075;-59
2022/08/29 04:46:39;;;;;;;25.42;15.93;;;;;;;11.29;94.53;102086.94;5034679;28;20481;-58
2022/08/29 04:49:05;;;;;;;23.85;15.05;;;;;;;11.25;94.83;102083.88;5034886;28;20047;-59
2022/08/29 04:51:33;;;;;;;22.52;14.43;;;;;;;11.25;94.99;102089.41;5034773;28;20017;-58
2022/08/29 04:53:58;;;;;;;21.35;13.35;;;;;;;11.24;94.21;102094.16;5034612;28;20105;-57
2022/08/29 04:56:24;;;;;;;22.40;13.73;;;;;;;11.27;94.23;102087.22;5017161;28;20456;-58
2022/08/29 04:58:50;;;;;;;23.48;13.68;;;;;;;11.27;94.15;102089.97;5034349;28;20034;-58
2022/08/29 05:01:19;;;;;;;23.52;13.35;;;;;;;11.22;94.16;102090.81;5034089;28;20160;-59
2022/08/29 05:03:45;;;;;;;20.98;13.18;;;;;;;11.20;94.22;102095.81;5034910;28;20037;-59
2022/08/29 05:06:12;;;;;;;24.48;13.27;;;;;;;11.20;94.64;102100.53;5034733;28;20032;-58
2022/08/29 05:08:40;;;;;;;20.27;12.45;;;;;;;11.19;94.82;102099.69;5034828;28;20508;-58
2022/08/29 05:11:10;;;;;;;20.27;12.55;;;;;;;11.18;94.39;102091.66;5034525;28;20048;-58
2022/08/29 05:13:35;;;;;;;23.48;12.98;;;;;;;11.25;94.31;102094.97;5034942;28;20087;-58
2022/08/29 05:16:06;;;;;;;20.55;12.18;;;;;;;11.22;94.25;102085.28;5034608;28;20064;-58
2022/08/29 05:18:32;;;;;;;23.15;12.27;;;;;;;11.36;93.86;102104.91;5034547;28;20105;-59
2022/08/29 05:20:57;;;;;;;20.60;12.38;;;;;;;11.43;93.29;102109.34;5034121;28;20047;-59
2022/08/29 05:23:22;;;;;;;19.67;11.65;;;;;;;11.51;93.35;102103.22;5033760;28;20053;-58
2022/08/29 05:25:55;;;;;;;22.17;12.70;;;;;;;11.51;93.47;102112.34;5033968;28;20025;-57
2022/08/29 05:28:20;;;;;;;21.23;12.20;;;;;;;11.54;92.80;102102.66;5033751;28;20036;-58
2022/08/29 05:30:46;;;;;;;21.63;12.65;;;;;;;11.57;92.89;102107.63;5034193;28;20022;-59
2022/08/29 05:33:11;;;;;;;20.90;12.23;;;;;;;11.65;92.41;102117.31;5033360;28;20033;-59
2022/08/29 05:35:37;;;;;;;22.58;12.27;;;;;;;11.67;92.32;102109.53;5033062;28;20022;-58
2022/08/29 05:38:02;;;;;;;21.35;11.88;;;;;;;11.74;92.11;102110.09;5033868;28;20029;-59
2022/08/29 05:40:28;;;;;;;21.73;12.35;;;;;;;11.81;91.73;102110.59;5034004;28;20026;-58
2022/08/29 05:42:54;;;;;;;20.50;11.95;;;;;;;11.88;91.42;102112.22;5034164;28;20037;-60
2022/08/29 05:45:19;;;;;;;19.80;11.52;;;;;;;11.94;91.38;102109.16;5033635;28;20181;-60
2022/08/29 05:47:45;;;;;;;19.63;11.77;;;;;;;11.97;91.01;102114.16;5034161;28;20061;-60
2022/08/29 05:50:12;;;;;;;20.50;12.43;;;;;;;12.02;90.74;102114.13;5033278;28;20087;-59
2022/08/29 05:52:39;;;;;;;19.67;12.55;;;;;;;12.09;90.79;102113.81;5033949;28;20449;-59
2022/08/29 05:55:05;;;;;;;20.48;12.15;;;;;;;12.07;90.08;102118.81;5033918;28;20029;-59
2022/08/29 05:57:30;;;;;;;21.15;11.70;;;;;;;12.13;90.07;102126.03;5015720;28;20041;-58
2022/08/29 05:59:56;;;;;;;22.35;12.27;;;;;;;12.26;89.72;102123.72;5034029;28;20229;-59
2022/08/29 06:02:22;;;;;;;21.27;11.40;;;;;;;12.40;88.86;102126.69;5034029;28;20195;-58
2022/08/29 06:04:48;;;;;;;18.65;11.00;;;;;;;12.52;88.18;102135.50;5033839;28;20385;-60
2022/08/29 06:07:14;;;;;;;20.45;12.10;;;;;;;12.58;87.66;102139.06;5034106;28;20104;-59
2022/08/29 06:09:41;;;;;;;20.98;11.88;;;;;;;12.57;86.99;102129.09;5033928;28;20083;-60
2022/08/29 06:12:07;;;;;;;21.90;11.85;;;;;;;12.68;87.28;102136.22;5033254;28;20021;-59
2022/08/29 06:14:33;;;;;;;21.92;11.50;;;;;;;12.75;86.88;102133.94;5033675;28;20097;-58
2022/08/29 06:16:59;;;;;;;23.40;11.82;;;;;;;12.84;87.04;102133.31;5033200;28;20044;-57
2022/08/29 06:19:25;;;;;;;22.48;11.70;;;;;;;12.92;86.56;102129.91;5033580;28;20053;-60
2022/08/29 06:21:53;;;;;;;21.92;11.98;;;;;;;13.00;86.65;102134.03;5033867;28;20026;-59
2022/08/29 06:24:18;;;;;;;22.05;11.82;;;;;;;13.06;85.86;102136.47;5022808;28;20065;-60
2022/08/29 06:26:44;;;;;;;20.67;12.27;;;;;;;13.15;85.19;102133.06;5014042;28;20049;-58
2022/08/29 06:29:10;;;;;;;21.15;12.00;;;;;;;13.16;84.54;102138.31;5013682;28;20069;-60
2022/08/29 06:31:36;;;;;;;20.25;11.13;;;;;;;13.25;84.71;102135.75;5013310;28;20033;-60
2022/08/29 06:34:06;;;;;;;23.02;11.43;;;;;;;13.35;84.56;102130.09;5013508;28;20026;-59
2022/08/29 06:36:32;;;;;;;20.33;11.35;;;;;;;13.49;84.08;102130.25;5013689;28;20030;-60
2022/08/29 06:39:01;;;;;;;21.67;11.88;;;;;;;13.45;83.87;102118.03;4996079;28;20022;-59
2022/08/29 06:41:27;;;;;;;20.77;11.70;;;;;;;13.67;83.15;102136.97;5013400;28;20026;-58
2022/08/29 06:43:54;;;;;;;21.63;11.88;;;;;;;13.75;82.45;102137.44;5013351;28;20095;-60
2022/08/29 06:46:29;;;;;;;20.80;11.70;;;;;;;13.86;82.23;102136.19;5012312;28;20030;-60
2022/08/29 06:48:56;;;;;;;24.33;12.30;;;;;;;13.98;81.33;102144.16;5019930;28;20033;-59
2022/08/29 06:51:23;;;;;;;22.85;11.68;;;;;;;14.10;81.43;102138.97;5013459;28;20038;-60
2022/08/29 06:53:48;;;;;;;20.48;11.38;;;;;;;14.25;80.59;102145.47;5012967;28;20398;-58
2022/08/29 06:56:14;;;;;;;20.73;11.50;;;;;;;14.32;79.20;102149.50;5012948;28;20034;-59
2022/08/29 06:58:40;;;;;;;19.98;11.90;;;;;;;14.48;79.63;102161.25;5012984;28;20113;-59
2022/08/29 07:01:12;;;;;;;22.75;12.43;;;;;;;14.63;77.70;102163.00;5013020;28;20489;-59
2022/08/29 07:03:39;;;;;;;22.75;11.60;;;;;;;14.72;76.11;102148.41;5013030;28;20037;-59
2022/08/29 07:06:06;;;;;;;19.95;11.20;;;;;;;14.95;75.76;102149.44;5013061;28;20022;-60
2022/08/29 07:08:32;;;;;;;24.40;11.32;;;;;;;15.20;74.46;102150.13;5012479;28;20029;-60
2022/08/29 07:10:57;;;;;;;20.92;11.10;;;;;;;15.29;72.08;102159.44;5011590;28;20030;-60
2022/08/29 07:13:23;;;;;;;19.98;11.38;;;;;;;15.39;73.05;102156.47;5010674;28;20075;-61
2022/08/29 07:15:48;;;;;;;22.50;11.80;;;;;;;15.47;72.83;102156.91;5010835;28;20034;-60
2022/08/29 07:18:14;;;;;;;22.95;11.63;;;;;;;15.64;71.98;102162.69;5010112;28;20045;-60
2022/08/29 07:20:39;;;;;;;21.65;11.82;;;;;;;15.79;69.44;102155.16;5009061;28;20052;-60
2022/08/29 07:23:05;;;;;;;21.80;12.25;;;;;;;16.05;71.68;102161.91;5008116;28;20104;-60
2022/08/29 07:25:30;;;;;;;21.83;12.02;;;;;;;16.18;69.34;102149.06;5024463;28;20078;-60
2022/08/29 07:27:56;;;;;;;22.05;11.18;;;;;;;16.25;66.98;102151.41;5029684;28;20068;-61
2022/08/29 07:30:21;;;;;;;21.80;11.07;;;;;;;16.34;67.80;102145.94;5029770;28;20068;-61
2022/08/29 07:32:46;;;;;;;19.40;11.18;;;;;;;16.49;66.86;102148.34;5012988;28;20493;-61
2022/08/29 07:35:13;;;;;;;19.23;10.68;;;;;;;16.64;64.79;102147.16;5008796;28;20096;-60
2022/08/29 07:37:39;;;;;;;21.85;12.05;;;;;;;16.77;64.91;102139.88;5010494;28;20123;-60
2022/08/29 07:40:06;;;;;;;21.13;11.40;;;;;;;16.86;63.75;102139.13;5010504;28;20080;-61
2022/08/29 07:42:33;;;;;;;19.92;11.43;;;;;;;17.03;64.63;102141.22;5010172;28;20030;-60
2022/08/29 07:44:58;;;;;;;21.02;11.10;;;;;;;17.15;63.16;102141.50;4992575;28;20445;-60
2022/08/29 07:47:25;;;;;;;20.80;10.95;;;;;;;17.29;62.04;102138.59;5010383;28;20091;-61
2022/08/29 07:49:51;;;;;;;20.85;11.23;;;;;;;17.49;61.44;102136.41;5010333;28;20034;-60
2022/08/29 07:52:17;;;;;;;19.05;10.35;;;;;;;17.50;59.66;102141.66;5010193;28;20038;-60
2022/08/29 07:54:42;;;;;;;21.58;11.20;;;;;;;17.53;59.76;102137.38;5010250;28;20036;-59
2022/08/29 07:57:07;;;;;;;21.13;11.35;;;;;;;17.56;59.17;102137.59;5009550;28;20030;-58
2022/08/29 07:59:32;;;;;;;19.95;10.30;;;;;;;17.64;59.39;102133.16;5010349;28;20036;-60
2022/08/29 08:01:58;;;;;;;18.67;10.07;;;;;;;17.72;57.92;102125.97;5010179;28;20037;-60
2022/08/29 08:04:23;;;;;;;19.05;10.57;;;;;;;17.81;57.55;102131.56;5010304;28;20430;-60
2022/08/29 08:06:48;;;;;;;18.38;9.73;;;;;;;17.83;55.92;102132.91;5010242;28;20112;-61
2022/08/29 08:09:14;;;;;;;16.75;9.45;;;;;;;17.86;56.50;102125.84;5010256;28;20042;-60
2022/08/29 08:11:40;;;;;;;18.23;9.05;;;;;;;17.92;56.20;102130.13;5010313;28;20486;-61
2022/08/29 08:14:06;;;;;;;19.70;9.57;;;;;;;17.95;56.65;102135.06;5009917;28;20014;-59
2022/08/29 08:16:31;;;;;;;17.48;9.52;;;;;;;17.93;55.68;102134.56;5010025;28;20365;-61
2022/08/29 08:18:57;;;;;;;16.30;9.70;;;;;;;18.04;55.77;102140.75;5009849;28;20053;-60
2022/08/29 08:21:24;;;;;;;17.83;9.63;;;;;;;18.08;55.09;102136.13;5010100;28;20030;-59
2022/08/29 08:23:51;;;;;;;17.65;9.25;;;;;;;18.20;55.66;102135.47;5009886;28;20065;-60
2022/08/29 08:26:16;;;;;;;18.33;10.00;;;;;;;18.22;54.47;102138.78;5009961;28;20030;-61
2022/08/29 08:28:43;;;;;;;20.33;10.13;;;;;;;18.14;53.86;102142.41;5009928;28;20037;-60
2022/08/29 08:31:10;;;;;;;18.83;9.98;;;;;;;18.19;53.76;102145.03;5010051;28;20018;-60
2022/08/29 08:33:37;;;;;;;19.52;10.07;;;;;;;18.33;53.70;102142.09;5012224;28;20506;-59
2022/08/29 08:36:28;;;;;;;18.20;9.93;;;;;;;18.29;53.67;102141.09;5010693;28;20033;-60
2022/08/29 08:38:54;;;;;;;17.95;9.20;;;;;;;18.26;52.65;102142.59;5027432;28;20099;-59
2022/08/29 08:41:25;;;;;;;18.60;9.25;;;;;;;18.28;53.15;102142.25;5029390;28;20072;-59
2022/08/29 08:43:52;;;;;;;16.25;9.10;;;;;;;18.16;51.52;102137.31;5029759;28;20033;-58
2022/08/29 08:46:27;;;;;;;17.52;9.30;;;;;;;18.20;52.40;102146.69;5029369;28;20087;-59
2022/08/29 08:48:55;;;;;;;17.60;9.50;;;;;;;18.14;52.57;102150.78;5029531;28;20030;-60
2022/08/29 08:51:25;;;;;;;19.13;9.18;;;;;;;18.11;53.09;102155.09;5024924;28;20033;-60
2022/08/29 08:53:56;;;;;;;20.75;9.88;;;;;;;18.07;53.22;102142.88;5017387;28;20043;-59
2022/08/29 08:56:31;;;;;;;19.27;9.70;;;;;;;18.20;54.09;102141.91;5019539;28;20026;-60
2022/08/29 08:59:02;;;;;;;20.55;10.23;;;;;;;18.45;54.63;102145.06;5019162;28;20515;-60
2022/08/29 09:01:36;;;;;;;19.92;10.07;;;;;;;18.41;52.93;102144.09;5021988;28;20038;-60
2022/08/29 09:04:12;;;;;;;20.15;10.98;;;;;;;18.50;53.87;102144.09;5009595;28;20026;-60
2022/08/29 09:07:29;;;;;;;18.83;10.13;;;;;;;18.77;54.64;102147.69;5009733;28;20040;-60
2022/08/29 09:10:31;;;;;;;20.10;9.80;;;;;;;19.04;53.59;102135.34;4990548;28;20037;-60
2022/08/29 09:13:04;;;;;;;18.75;9.73;;;;;;;19.16;51.09;102140.25;5032804;28;20116;-60
2022/08/29 09:15:39;;;;;;;19.10;9.70;;;;;;;19.27;50.72;102151.97;5033037;28;20041;-60
2022/08/29 09:18:13;;;;;;;18.98;9.90;;;;;;;19.10;51.03;102134.00;5032671;28;20797;-60
2022/08/29 09:20:40;;;;;;;19.27;9.82;;;;;;;19.07;51.54;102157.13;5032731;28;20033;-59
2022/08/29 09:23:17;;;;;;;18.13;9.65;;;;;;;19.08;52.37;102157.94;5032745;28;20507;-61
2022/08/29 09:25:43;;;;;;;19.33;9.68;;;;;;;19.00;51.87;102151.16;5032816;28;20033;-61
2022/08/29 09:28:08;;;;;;;22.25;10.70;;;;;;;19.10;52.81;102153.63;5032870;28;20522;-59
2022/08/29 09:30:36;;;;;;;18.52;10.13;;;;;;;19.17;52.12;102147.50;5032637;28;20079;-61
2022/08/29 09:33:15;;;;;;;20.05;9.93;;;;;;;19.25;52.26;102135.44;5032415;28;20025;-60
2022/08/29 09:35:47;;;;;;;19.42;10.20;;;;;;;19.28;50.93;102151.63;5030854;28;20040;-59
2022/08/29 09:38:15;;;;;;;19.65;10.52;;;;;;;19.26;50.90;102148.31;5031244;28;20121;-60
2022/08/29 09:40:51;;;;;;;19.98;10.18;;;;;;;19.24;51.17;102139.41;5031769;28;20068;-59
2022/08/29 09:43:20;;;;;;;18.13;10.07;;;;;;;19.34;50.88;102152.25;5031612;28;20429;-60
2022/08/29 09:46:17;;;;;;;19.10;10.38;;;;;;;19.52;51.60;102141.78;5032366;28;20101;-60
2022/08/29 09:48:50;;;;;;;20.35;10.85;;;;;;;19.33;50.66;102145.00;5024811;28;20400;-60
2022/08/29 09:51:31;;;;;;;19.37;10.30;;;;;;;19.17;51.15;102139.94;5032018;28;20033;-61
2022/08/29 09:54:31;;;;;;;19.27;10.77;;;;;;;18.94;51.29;102144.09;5024588;28;20450;-61
2022/08/29 09:57:02;;;;;;;18.65;10.13;;;;;;;19.00;51.18;102149.19;5031562;28;20486;-60
2022/08/29 09:59:32;;;;;;;18.25;10.27;;;;;;;19.15;52.03;102149.81;5032231;28;20056;-61
2022/08/29 10:02:15;;;;;;;19.92;10.15;;;;;;;19.29;52.12;102147.66;5032063;28;20029;-61
2022/08/29 10:04:44;;;;;;;19.02;9.68;;;;;;;19.30;51.05;102132.47;5031970;28;20069;-60
2022/08/29 10:07:17;;;;;;;18.00;9.77;;;;;;;19.22;50.62;102135.28;5031692;28;20549;-60
2022/08/29 10:10:01;;;;;;;17.98;9.63;;;;;;;19.25;50.99;102145.84;5031759;28;20496;-60
2022/08/29 10:12:39;;;;;;;20.35;9.82;;;;;;;19.16;51.70;102138.28;5031671;28;20048;-61
2022/08/29 10:15:11;;;;;;;19.42;9.63;;;;;;;19.14;50.44;102134.16;5031615;28;20029;-61
2022/08/29 10:20:58;;;;;;;17.77;9.50;;;;;;;19.60;50.15;102131.69;5031068;28;20048;-60
2022/08/29 10:23:42;;;;;;;20.10;9.98;;;;;;;19.61;50.22;102128.53;5030861;28;20572;-61
2022/08/29 10:26:25;;;;;;;18.65;9.68;;;;;;;19.71;50.91;102123.69;5025537;28;20064;-61
2022/08/29 10:29:02;;;;;;;18.75;9.70;;;;;;;19.76;50.13;102135.56;5031236;28;20607;-59
2022/08/29 10:31:37;;;;;;;18.20;9.35;;;;;;;19.76;51.09;102121.53;5030723;28;20034;-60
2022/08/29 10:34:20;;;;;;;18.75;9.35;;;;;;;19.78;49.25;102147.28;5031086;28;20029;-61
2022/08/29 10:36:53;;;;;;;18.10;9.55;;;;;;;19.60;50.36;102134.50;5029313;28;20029;-61
2022/08/29 10:39:35;;;;;;;17.40;9.40;;;;;;;19.50;50.42;102138.50;5030966;28;20378;-60
2022/08/29 10:42:08;;;;;;;19.48;9.27;;;;;;;19.43;50.79;102133.41;5030924;28;20123;-59
2022/08/29 10:44:50;;;;;;;18.67;9.45;;;;;;;19.60;51.52;102120.47;5031037;28;20033;-61
2022/08/29 10:47:37;;;;;;;19.20;9.23;;;;;;;19.96;50.23;102130.38;5030888;28;20037;-60
2022/08/29 10:50:15;;;;;;;18.33;9.18;;;;;;;20.27;49.05;102132.00;5030693;28;20037;-59
2022/08/29 10:53:01;;;;;;;19.63;9.52;;;;;;;20.61;48.58;102132.88;5030914;28;20436;-60
2022/08/29 10:55:35;;;;;;;18.77;9.20;;;;;;;20.73;46.98;102124.53;5031113;28;20116;-61
2022/08/29 10:58:29;;;;;;;17.73;9.18;;;;;;;20.79;47.09;102129.91;5026666;28;20096;-60
2022/08/29 11:01:09;;;;;;;17.60;9.70;;;;;;;20.94;47.29;102128.44;5018915;28;20043;-60
2022/08/29 11:04:03;;;;;;;18.13;9.30;;;;;;;21.14;47.10;102110.69;5021329;28;20069;-60
2022/08/29 11:06:33;;;;;;;18.38;9.10;;;;;;;21.46;46.12;102104.53;5020394;28;20037;-61
2022/08/29 11:09:15;;;;;;;17.20;9.55;;;;;;;21.57;44.64;102114.16;5018945;28;20026;-62
2022/08/29 11:11:55;;;;;;;18.98;10.15;;;;;;;21.97;45.47;102101.34;5019314;28;20113;-60
2022/08/29 11:14:47;;;;;;;19.40;10.00;;;;;;;21.91;44.74;102102.78;5019205;28;20026;-60
2022/08/29 11:17:15;;;;;;;22.45;11.38;;;;;;;21.94;44.86;102105.72;4980679;28;20085;-61
2022/08/29 11:20:04;;;;;;;19.73;9.98;;;;;;;22.08;45.34;102096.88;5018862;28;20438;-61
2022/08/29 11:22:34;;;;;;;18.48;10.05;;;;;;;22.35;44.05;102093.66;5018280;28;20100;-61
2022/08/29 11:25:08;;;;;;;17.90;9.55;;;;;;;22.38;44.08;102096.56;5010669;28;20060;-61
2022/08/29 11:27:51;;;;;;;21.00;9.85;;;;;;;22.57;43.72;102086.66;5010783;28;20072;-61
2022/08/29 11:30:28;;;;;;;;;;;;;;;22.83;45.53;102086.19;5011271;28;20485;-60